Soperton, GA

01:45 PM EDT on êèنêè 25, 2016 (GMT -0400)
South Treutlen Co. | | Change Station

Elev 236 ft 32.32 °N, 82.60 °W | Updated 6 seconds ago

Scattered Clouds
غيوم متفرقة
93.1 °F
Feels Like 103 °F
N
1.0
ريح متغير ريح from جنوب
Gusts 5.0 mph

هذا اليوم
High -- | Low -- °F
--% Chance of Precip.
Yesterday
High -- | Low -- °F
Precip. -- في
الضغط 30.05 في
وضوح الرؤية 10.0 أميال
سحابات غيوم متفرقة 5500 ft
غيوم متفرقة 6500 ft
مؤشر الحرارة 103 °F
نقطة الندى 73 °F
الرطوبة 53%
Rainfall 0.00 في
عمق الثلج Not available.
6:40 AM 8:32 PM
الأحدب الأخير, 64% visible
METAR KVDI 251735Z AUTO 19007KT 170V230 10SM SCT055 SCT065 35/19 A3005 RMK AO2
الضغط 30.05 في
وضوح الرؤية 10.0 أميال
سحابات غيوم متفرقة 5500 ft
غيوم متفرقة 6500 ft
مؤشر الحرارة 103 °F
نقطة الندى 73 °F
الرطوبة 53%
Rainfall 0.00 في
عمق الثلج Not available.
6:40 AM 8:32 PM
الأحدب الأخير, 64% visible
METAR KVDI 251735Z AUTO 19007KT 170V230 10SM SCT055 SCT065 35/19 A3005 RMK AO2
Record highs are possible for parts of the Northeast Monday and Tuesday, as parts of the central U.S. take a little breather from the worst of summer's dog day heat.

Expansive high pressure in the upper atmosphere will focus on parts of the East and West this week, sending heat indices well into the triple digits from the Mid-Atlantic states into the South.

10-Day Weather Forecast

Almanac

علم الفلك

Jul. 25, 2016 Rise Set
Actual Time
Civil Twilight
Nautical Twilight
Astronomical Twilight
قمر
Length Of Visible Light
طول الیوم
Tomorrow will be .
, % of the Moon is Illuminated

Today's Extremes

State Highs State Lows

Community

WunderPhotos

Upload Photos

1,927,364 photos uploaded!

WunderBlog® & News

Nearby

جودة الهواء

  جودة الهواء AQ Index Pollutant
Not available.

عمق الثلج

Station Depth Elevation

Earthquake Activity

City Distance Mag. Time & Date
Minimum magnitude displayed is 2.5.

Coastal Water Temperatures

مكان درجات الحرارة

Stations

Nearby Weather Stations

Station Location الحرارة رياح باردة نقطة الندى الرطوبة ريح Precip. Elev تحديث Type
                   

Watches & Warnings

There are currently no watches in effect.